aviador You're here:

SULS Decoded Metar

MALDONADO in URUGUAY
Report Time2017-12-18 08:00:00
UTC Time2017-12-18 08:50:53
Flight Rules vfr VFR
Wind120° at 02 kt
W.Decomp.*RWY 08: 1.3 kt HW 1.5 kt RCW
RWY 19: 0.9 kt HW 1.8 kt LCW
W.Rank120° ranks 27
Current wind is below 120° avg. (8.3)
Visibility9999 m
Phenomena:N/A
Clouds:Few 026 Hf
Expected CloudBase > 2,400 ft AGL from Temp-Dew spread
CeilingNone
Temp12°C (ISA -3)
Dew Point06°C (67% RH)
AAT10.4°C
QNH1023 hPa
Density Alt-446 ft
Elevation98 ft
Report Wrong Elevation
Raw Report
METAR SULS 180800Z 12002KT 9999 FEW026 12/06 Q1023=

Extra information for SULS:More info

Metar Taf Metar & Taf Last 4 Metars F.Rules Stats Wind Profile Meteogram Temp Stats Airport Information Weather charts Add Link Nearby VenuesMetar ALERT Operation Metar Decoded Social comments